sensor_id;sensor_type;location;lat;lon;timestamp;pressure;altitude;pressure_sealevel;temperature;humidity
15678;BME280;7939;50.814;6.368;2023-11-19T00:02:15;99370.09;;;13.65;74.69
15678;BME280;7939;50.814;6.368;2023-11-19T00:04:42;99370.09;;;13.63;75.12
15678;BME280;7939;50.814;6.368;2023-11-19T00:07:09;99370.94;;;13.65;74.22
15678;BME280;7939;50.814;6.368;2023-11-19T00:09:37;99374.38;;;13.64;74.97
15678;BME280;7939;50.814;6.368;2023-11-19T00:12:05;99369.22;;;13.66;75.03
15678;BME280;7939;50.814;6.368;2023-11-19T00:14:33;99372.59;;;13.68;74.68
15678;BME280;7939;50.814;6.368;2023-11-19T00:16:59;99374.28;;;13.69;74.64
15678;BME280;7939;50.814;6.368;2023-11-19T00:19:27;99371.72;;;13.69;75.44
15678;BME280;7939;50.814;6.368;2023-11-19T00:21:54;99375.13;;;13.71;75.45
15678;BME280;7939;50.814;6.368;2023-11-19T00:24:20;99358.81;;;13.72;74.92
15678;BME280;7939;50.814;6.368;2023-11-19T00:26:47;99365.66;;;13.73;74.75
15678;BME280;7939;50.814;6.368;2023-11-19T00:29:14;99362.28;;;13.71;74.22
15678;BME280;7939;50.814;6.368;2023-11-19T00:31:41;99361.34;;;13.73;74.67
15678;BME280;7939;50.814;6.368;2023-11-19T00:34:07;99352.84;;;13.70;74.78
15678;BME280;7939;50.814;6.368;2023-11-19T00:36:34;99350.25;;;13.73;74.93
15678;BME280;7939;50.814;6.368;2023-11-19T00:39:01;99364.72;;;13.75;74.77
15678;BME280;7939;50.814;6.368;2023-11-19T00:41:27;99358.75;;;13.75;74.91
15678;BME280;7939;50.814;6.368;2023-11-19T00:43:54;99363.88;;;13.76;74.66
15678;BME280;7939;50.814;6.368;2023-11-19T00:46:21;99357.03;;;13.77;75.05
15678;BME280;7939;50.814;6.368;2023-11-19T00:48:47;99361.28;;;13.78;75.00
15678;BME280;7939;50.814;6.368;2023-11-19T00:51:14;99352.72;;;13.77;75.47
15678;BME280;7939;50.814;6.368;2023-11-19T00:53:42;99341.56;;;13.79;75.37
15678;BME280;7939;50.814;6.368;2023-11-19T00:56:10;99327.00;;;13.79;75.72
15678;BME280;7939;50.814;6.368;2023-11-19T00:58:38;99328.69;;;13.80;75.58
15678;BME280;7939;50.814;6.368;2023-11-19T01:01:04;99331.22;;;13.82;75.46
15678;BME280;7939;50.814;6.368;2023-11-19T01:03:31;99334.66;;;13.81;75.68
15678;BME280;7939;50.814;6.368;2023-11-19T01:05:58;99336.34;;;13.82;75.55
15678;BME280;7939;50.814;6.368;2023-11-19T01:08:27;99330.34;;;13.84;75.97
15678;BME280;7939;50.814;6.368;2023-11-19T01:10:55;99328.56;;;13.86;75.63
15678;BME280;7939;50.814;6.368;2023-11-19T01:13:22;99320.88;;;13.86;75.30
15678;BME280;7939;50.814;6.368;2023-11-19T01:15:50;99318.28;;;13.86;75.95
15678;BME280;7939;50.814;6.368;2023-11-19T01:18:16;99322.63;;;13.83;75.57
15678;BME280;7939;50.814;6.368;2023-11-19T01:20:43;99329.41;;;13.87;75.30
15678;BME280;7939;50.814;6.368;2023-11-19T01:23:09;99325.94;;;13.89;75.59
15678;BME280;7939;50.814;6.368;2023-11-19T01:25:36;99335.34;;;13.89;75.07
15678;BME280;7939;50.814;6.368;2023-11-19T01:28:05;99331.94;;;13.90;75.51
15678;BME280;7939;50.814;6.368;2023-11-19T01:30:31;99334.50;;;13.88;75.26
15678;BME280;7939;50.814;6.368;2023-11-19T01:32:58;99335.34;;;13.89;75.34
15678;BME280;7939;50.814;6.368;2023-11-19T01:35:25;99343.94;;;13.89;74.92
15678;BME280;7939;50.814;6.368;2023-11-19T01:37:52;99337.06;;;13.88;75.41
15678;BME280;7939;50.814;6.368;2023-11-19T01:40:20;99337.91;;;13.89;75.60
15678;BME280;7939;50.814;6.368;2023-11-19T01:42:47;99333.63;;;13.91;74.98
15678;BME280;7939;50.814;6.368;2023-11-19T01:45:22;99337.03;;;13.91;75.03
15678;BME280;7939;50.814;6.368;2023-11-19T01:47:53;99324.22;;;13.90;74.40
15678;BME280;7939;50.814;6.368;2023-11-19T01:50:20;99324.16;;;13.93;75.08
15678;BME280;7939;50.814;6.368;2023-11-19T01:52:47;99327.59;;;13.92;74.85
15678;BME280;7939;50.814;6.368;2023-11-19T01:55:14;99325.88;;;13.92;74.74
15678;BME280;7939;50.814;6.368;2023-11-19T01:57:41;99341.25;;;13.94;74.90
15678;BME280;7939;50.814;6.368;2023-11-19T02:00:09;99322.38;;;13.95;74.62
15678;BME280;7939;50.814;6.368;2023-11-19T02:02:38;99319.81;;;13.95;74.64
15678;BME280;7939;50.814;6.368;2023-11-19T02:05:06;99313.88;;;13.93;75.32
15678;BME280;7939;50.814;6.368;2023-11-19T02:07:33;99304.41;;;13.95;74.63
15678;BME280;7939;50.814;6.368;2023-11-19T02:09:59;99295.00;;;13.95;75.22
15678;BME280;7939;50.814;6.368;2023-11-19T02:12:27;99285.56;;;13.96;74.69
15678;BME280;7939;50.814;6.368;2023-11-19T02:14:54;99281.28;;;13.96;74.58
15678;BME280;7939;50.814;6.368;2023-11-19T02:17:27;99270.97;;;13.98;74.98
15678;BME280;7939;50.814;6.368;2023-11-19T02:19:58;99276.13;;;13.96;75.00
15678;BME280;7939;50.814;6.368;2023-11-19T02:22:24;99293.28;;;13.96;74.96
15678;BME280;7939;50.814;6.368;2023-11-19T02:24:54;99280.38;;;13.97;74.94
15678;BME280;7939;50.814;6.368;2023-11-19T02:27:26;99289.81;;;13.97;75.11
15678;BME280;7939;50.814;6.368;2023-11-19T02:29:56;99296.66;;;13.98;74.81
15678;BME280;7939;50.814;6.368;2023-11-19T02:32:23;99287.25;;;13.97;75.13
15678;BME280;7939;50.814;6.368;2023-11-19T02:34:53;99286.41;;;13.95;74.37
15678;BME280;7939;50.814;6.368;2023-11-19T02:37:20;99277.03;;;13.95;74.37
15678;BME280;7939;50.814;6.368;2023-11-19T02:39:46;99274.41;;;13.97;74.02
15678;BME280;7939;50.814;6.368;2023-11-19T02:42:13;99261.56;;;13.97;74.27
15678;BME280;7939;50.814;6.368;2023-11-19T02:44:43;99260.72;;;13.96;73.88
15678;BME280;7939;50.814;6.368;2023-11-19T02:47:11;99263.28;;;13.96;74.45
15678;BME280;7939;50.814;6.368;2023-11-19T02:49:38;99271.88;;;13.95;74.29
15678;BME280;7939;50.814;6.368;2023-11-19T02:52:05;99276.16;;;13.95;74.62
15678;BME280;7939;50.814;6.368;2023-11-19T02:54:32;99281.28;;;13.96;74.71
15678;BME280;7939;50.814;6.368;2023-11-19T02:57:00;99284.72;;;13.95;74.80
15678;BME280;7939;50.814;6.368;2023-11-19T02:59:29;99283.84;;;13.95;74.93
15678;BME280;7939;50.814;6.368;2023-11-19T03:02:04;99266.75;;;13.95;74.64
15678;BME280;7939;50.814;6.368;2023-11-19T03:04:33;99280.44;;;13.96;74.53
15678;BME280;7939;50.814;6.368;2023-11-19T03:07:00;99267.59;;;13.94;73.85
15678;BME280;7939;50.814;6.368;2023-11-19T03:09:27;99277.88;;;13.94;74.29
15678;BME280;7939;50.814;6.368;2023-11-19T03:11:54;99275.28;;;13.96;74.56
15678;BME280;7939;50.814;6.368;2023-11-19T03:14:21;99265.88;;;13.95;74.40
15678;BME280;7939;50.814;6.368;2023-11-19T03:16:48;99248.75;;;13.95;74.21
15678;BME280;7939;50.814;6.368;2023-11-19T03:19:15;99252.13;;;13.97;74.28
15678;BME280;7939;50.814;6.368;2023-11-19T03:21:42;99250.44;;;13.95;74.21
15678;BME280;7939;50.814;6.368;2023-11-19T03:24:10;99264.19;;;13.95;74.22
15678;BME280;7939;50.814;6.368;2023-11-19T03:26:36;99259.03;;;13.95;74.60
15678;BME280;7939;50.814;6.368;2023-11-19T03:29:03;99262.44;;;13.96;74.28
15678;BME280;7939;50.814;6.368;2023-11-19T03:31:30;99273.63;;;13.93;74.32
15678;BME280;7939;50.814;6.368;2023-11-19T03:33:56;99272.78;;;13.93;74.63
15678;BME280;7939;50.814;6.368;2023-11-19T03:36:23;99269.31;;;13.94;74.46
15678;BME280;7939;50.814;6.368;2023-11-19T03:38:51;99274.44;;;13.95;74.06
15678;BME280;7939;50.814;6.368;2023-11-19T03:41:17;99277.78;;;13.99;74.19
15678;BME280;7939;50.814;6.368;2023-11-19T03:43:44;99265.78;;;13.99;74.58
15678;BME280;7939;50.814;6.368;2023-11-19T03:46:18;99276.94;;;13.98;74.49
15678;BME280;7939;50.814;6.368;2023-11-19T03:48:44;99293.16;;;14.00;74.20
15678;BME280;7939;50.814;6.368;2023-11-19T03:51:11;99295.72;;;14.02;74.67
15678;BME280;7939;50.814;6.368;2023-11-19T03:53:41;99292.25;;;14.03;75.36
15678;BME280;7939;50.814;6.368;2023-11-19T03:56:09;99296.56;;;14.01;75.36
15678;BME280;7939;50.814;6.368;2023-11-19T03:58:36;99291.41;;;14.02;74.93
15678;BME280;7939;50.814;6.368;2023-11-19T04:01:03;99281.97;;;14.03;75.03
15678;BME280;7939;50.814;6.368;2023-11-19T04:03:30;99287.06;;;14.04;74.61
15678;BME280;7939;50.814;6.368;2023-11-19T04:05:56;99296.50;;;14.04;74.58
15678;BME280;7939;50.814;6.368;2023-11-19T04:08:24;99284.50;;;14.04;74.64
15678;BME280;7939;50.814;6.368;2023-11-19T04:10:51;99279.41;;;14.03;74.15
15678;BME280;7939;50.814;6.368;2023-11-19T04:13:18;99287.97;;;14.03;74.84
15678;BME280;7939;50.814;6.368;2023-11-19T04:15:45;99300.81;;;14.03;74.53
15678;BME280;7939;50.814;6.368;2023-11-19T04:18:12;99299.91;;;14.04;75.48
15678;BME280;7939;50.814;6.368;2023-11-19T04:20:39;99299.88;;;14.06;74.49
15678;BME280;7939;50.814;6.368;2023-11-19T04:23:07;99299.03;;;14.06;74.19
15678;BME280;7939;50.814;6.368;2023-11-19T04:25:34;99298.19;;;14.05;74.15
15678;BME280;7939;50.814;6.368;2023-11-19T04:28:01;99310.16;;;14.06;74.61
15678;BME280;7939;50.814;6.368;2023-11-19T04:30:29;99281.09;;;14.04;74.44
15678;BME280;7939;50.814;6.368;2023-11-19T04:32:57;99286.22;;;14.04;74.03
15678;BME280;7939;50.814;6.368;2023-11-19T04:35:23;99293.91;;;14.06;74.57
15678;BME280;7939;50.814;6.368;2023-11-19T04:37:51;99281.06;;;14.06;74.59
15678;BME280;7939;50.814;6.368;2023-11-19T04:40:18;99286.28;;;14.02;73.97
15678;BME280;7939;50.814;6.368;2023-11-19T04:42:44;99293.13;;;14.02;73.87
15678;BME280;7939;50.814;6.368;2023-11-19T04:45:11;99298.28;;;14.00;73.77
15678;BME280;7939;50.814;6.368;2023-11-19T04:47:39;99305.09;;;14.03;73.60
15678;BME280;7939;50.814;6.368;2023-11-19T04:50:06;99288.00;;;14.00;73.91
15678;BME280;7939;50.814;6.368;2023-11-19T04:52:37;99301.75;;;13.99;73.33
15678;BME280;7939;50.814;6.368;2023-11-19T04:55:06;99306.91;;;13.98;73.78
15678;BME280;7939;50.814;6.368;2023-11-19T04:57:33;99316.34;;;13.97;73.70
15678;BME280;7939;50.814;6.368;2023-11-19T04:59:59;99322.28;;;13.99;73.50
15678;BME280;7939;50.814;6.368;2023-11-19T05:02:26;99320.66;;;13.97;73.50
15678;BME280;7939;50.814;6.368;2023-11-19T05:04:54;99318.06;;;13.97;73.37
15678;BME280;7939;50.814;6.368;2023-11-19T05:07:20;99316.38;;;13.96;73.00
15678;BME280;7939;50.814;6.368;2023-11-19T05:09:47;99312.09;;;13.96;73.38
15678;BME280;7939;50.814;6.368;2023-11-19T05:12:13;99317.25;;;13.95;73.28
15678;BME280;7939;50.814;6.368;2023-11-19T05:14:40;99320.69;;;13.95;72.76
15678;BME280;7939;50.814;6.368;2023-11-19T05:17:13;99330.09;;;13.95;72.91
15678;BME280;7939;50.814;6.368;2023-11-19T05:19:39;99328.34;;;13.97;72.77
15678;BME280;7939;50.814;6.368;2023-11-19T05:22:07;99333.53;;;13.94;72.76
15678;BME280;7939;50.814;6.368;2023-11-19T05:24:34;99321.56;;;13.93;73.16
15678;BME280;7939;50.814;6.368;2023-11-19T05:27:01;99319.88;;;13.92;72.91
15678;BME280;7939;50.814;6.368;2023-11-19T05:29:27;99327.59;;;13.92;73.17
15678;BME280;7939;50.814;6.368;2023-11-19T05:31:54;99325.03;;;13.92;72.18
15678;BME280;7939;50.814;6.368;2023-11-19T05:34:21;99344.78;;;13.90;73.02
15678;BME280;7939;50.814;6.368;2023-11-19T05:36:48;99337.03;;;13.91;72.76
15678;BME280;7939;50.814;6.368;2023-11-19T05:39:16;99343.06;;;13.90;72.25
15678;BME280;7939;50.814;6.368;2023-11-19T05:41:44;99336.22;;;13.88;72.91
15678;BME280;7939;50.814;6.368;2023-11-19T05:44:10;99322.50;;;13.89;72.27
15678;BME280;7939;50.814;6.368;2023-11-19T05:46:37;99323.34;;;13.91;72.09
15678;BME280;7939;50.814;6.368;2023-11-19T05:49:07;99331.91;;;13.91;72.40
15678;BME280;7939;50.814;6.368;2023-11-19T05:51:36;99330.16;;;13.92;72.56
15678;BME280;7939;50.814;6.368;2023-11-19T05:54:04;99343.06;;;13.90;72.58
15678;BME280;7939;50.814;6.368;2023-11-19T05:56:33;99343.06;;;13.89;72.18
15678;BME280;7939;50.814;6.368;2023-11-19T05:59:00;99347.31;;;13.91;72.09
15678;BME280;7939;50.814;6.368;2023-11-19T06:01:28;99345.63;;;13.90;72.45
15678;BME280;7939;50.814;6.368;2023-11-19T06:03:55;99343.00;;;13.92;72.10
15678;BME280;7939;50.814;6.368;2023-11-19T06:06:22;99347.31;;;13.91;72.17
15678;BME280;7939;50.814;6.368;2023-11-19T06:08:49;99361.00;;;13.92;72.62
15678;BME280;7939;50.814;6.368;2023-11-19T06:11:16;99350.69;;;13.93;72.60
15678;BME280;7939;50.814;6.368;2023-11-19T06:13:46;99354.97;;;13.93;72.18
15678;BME280;7939;50.814;6.368;2023-11-19T06:16:16;99359.22;;;13.94;72.06
15678;BME280;7939;50.814;6.368;2023-11-19T06:18:42;99361.84;;;13.92;72.16
15678;BME280;7939;50.814;6.368;2023-11-19T06:21:10;99355.91;;;13.90;71.94
15678;BME280;7939;50.814;6.368;2023-11-19T06:23:36;99358.41;;;13.92;72.17
15678;BME280;7939;50.814;6.368;2023-11-19T06:26:03;99349.91;;;13.88;72.59
15678;BME280;7939;50.814;6.368;2023-11-19T06:28:30;99349.88;;;13.91;72.31
15678;BME280;7939;50.814;6.368;2023-11-19T06:30:58;99346.41;;;13.92;71.78
15678;BME280;7939;50.814;6.368;2023-11-19T06:33:25;99340.47;;;13.90;71.77
15678;BME280;7939;50.814;6.368;2023-11-19T06:35:52;99349.91;;;13.88;71.90
15678;BME280;7939;50.814;6.368;2023-11-19T06:38:19;99351.63;;;13.89;72.19
15678;BME280;7939;50.814;6.368;2023-11-19T06:40:46;99355.06;;;13.90;72.08
15678;BME280;7939;50.814;6.368;2023-11-19T06:43:13;99365.34;;;13.88;71.42
15678;BME280;7939;50.814;6.368;2023-11-19T06:45:40;99367.03;;;13.89;71.59
15678;BME280;7939;50.814;6.368;2023-11-19T06:48:08;99373.88;;;13.89;71.66
15678;BME280;7939;50.814;6.368;2023-11-19T06:50:35;99366.16;;;13.89;71.41
15678;BME280;7939;50.814;6.368;2023-11-19T06:53:02;99357.63;;;13.88;71.29
15678;BME280;7939;50.814;6.368;2023-11-19T06:55:30;99358.53;;;13.86;71.75
15678;BME280;7939;50.814;6.368;2023-11-19T06:57:59;99355.94;;;13.87;71.71
15678;BME280;7939;50.814;6.368;2023-11-19T07:00:26;99361.13;;;13.86;71.14
15678;BME280;7939;50.814;6.368;2023-11-19T07:02:53;99339.69;;;13.87;70.71
15678;BME280;7939;50.814;6.368;2023-11-19T07:05:21;99346.59;;;13.85;71.42
15678;BME280;7939;50.814;6.368;2023-11-19T07:07:48;99345.69;;;13.86;70.89
15678;BME280;7939;50.814;6.368;2023-11-19T07:10:16;99343.13;;;13.86;70.75
15678;BME280;7939;50.814;6.368;2023-11-19T07:12:42;99335.47;;;13.83;71.36
15678;BME280;7939;50.814;6.368;2023-11-19T07:15:10;99356.03;;;13.84;70.97
15678;BME280;7939;50.814;6.368;2023-11-19T07:17:38;99359.47;;;13.83;70.85
15678;BME280;7939;50.814;6.368;2023-11-19T07:20:06;99372.28;;;13.85;70.78
15678;BME280;7939;50.814;6.368;2023-11-19T07:22:34;99344.91;;;13.84;70.88
15678;BME280;7939;50.814;6.368;2023-11-19T07:25:04;99366.34;;;13.81;70.84
15678;BME280;7939;50.814;6.368;2023-11-19T07:27:31;99382.59;;;13.83;70.77
15678;BME280;7939;50.814;6.368;2023-11-19T07:29:57;99391.13;;;13.84;71.44
15678;BME280;7939;50.814;6.368;2023-11-19T07:32:24;99389.41;;;13.83;71.26
15678;BME280;7939;50.814;6.368;2023-11-19T07:34:50;99397.13;;;13.83;71.44
15678;BME280;7939;50.814;6.368;2023-11-19T07:37:17;99408.25;;;13.83;71.11
15678;BME280;7939;50.814;6.368;2023-11-19T07:39:45;99412.53;;;13.84;71.83
15678;BME280;7939;50.814;6.368;2023-11-19T07:42:11;99414.25;;;13.84;71.49
15678;BME280;7939;50.814;6.368;2023-11-19T07:44:38;99409.97;;;13.83;71.03
15678;BME280;7939;50.814;6.368;2023-11-19T07:47:05;99404.00;;;13.81;71.65
15678;BME280;7939;50.814;6.368;2023-11-19T07:49:31;99407.47;;;13.80;71.18
15678;BME280;7939;50.814;6.368;2023-11-19T07:51:58;99401.44;;;13.81;71.27
15678;BME280;7939;50.814;6.368;2023-11-19T07:54:24;99396.31;;;13.81;71.35
15678;BME280;7939;50.814;6.368;2023-11-19T07:56:52;99400.63;;;13.79;70.71
15678;BME280;7939;50.814;6.368;2023-11-19T07:59:19;99415.16;;;13.80;70.85
15678;BME280;7939;50.814;6.368;2023-11-19T08:01:46;99413.47;;;13.79;70.93
15678;BME280;7939;50.814;6.368;2023-11-19T08:04:13;99411.75;;;13.79;70.54
15678;BME280;7939;50.814;6.368;2023-11-19T08:06:39;99416.91;;;13.79;71.07
15678;BME280;7939;50.814;6.368;2023-11-19T08:09:06;99428.84;;;13.80;71.27
15678;BME280;7939;50.814;6.368;2023-11-19T08:11:39;99437.44;;;13.79;70.68
15678;BME280;7939;50.814;6.368;2023-11-19T08:14:07;99430.56;;;13.80;70.86
15678;BME280;7939;50.814;6.368;2023-11-19T08:16:33;99421.19;;;13.79;70.28
15678;BME280;7939;50.814;6.368;2023-11-19T08:19:00;99426.34;;;13.77;71.02
15678;BME280;7939;50.814;6.368;2023-11-19T08:21:27;99431.47;;;13.79;70.25
15678;BME280;7939;50.814;6.368;2023-11-19T08:23:53;99423.75;;;13.79;70.60
15678;BME280;7939;50.814;6.368;2023-11-19T08:26:20;99422.94;;;13.76;70.79
15678;BME280;7939;50.814;6.368;2023-11-19T08:28:46;99430.63;;;13.78;70.35
15678;BME280;7939;50.814;6.368;2023-11-19T08:31:14;99422.88;;;13.80;70.51
15678;BME280;7939;50.814;6.368;2023-11-19T08:33:41;99417.81;;;13.76;70.80
15678;BME280;7939;50.814;6.368;2023-11-19T08:36:08;99424.59;;;13.79;70.32
15678;BME280;7939;50.814;6.368;2023-11-19T08:38:35;99419.50;;;13.77;69.99
15678;BME280;7939;50.814;6.368;2023-11-19T08:41:01;99428.00;;;13.80;69.81
15678;BME280;7939;50.814;6.368;2023-11-19T08:43:28;99427.19;;;13.77;70.03
15678;BME280;7939;50.814;6.368;2023-11-19T08:45:56;99419.47;;;13.79;70.66
15678;BME280;7939;50.814;6.368;2023-11-19T08:48:24;99421.16;;;13.80;70.64
15678;BME280;7939;50.814;6.368;2023-11-19T08:50:51;99423.69;;;13.82;69.67
15678;BME280;7939;50.814;6.368;2023-11-19T08:53:17;99419.38;;;13.82;70.10
15678;BME280;7939;50.814;6.368;2023-11-19T08:55:44;99435.69;;;13.81;69.60
15678;BME280;7939;50.814;6.368;2023-11-19T08:58:10;99444.25;;;13.80;69.91
15678;BME280;7939;50.814;6.368;2023-11-19T09:00:37;99428.00;;;13.80;69.79
15678;BME280;7939;50.814;6.368;2023-11-19T09:03:04;99439.94;;;13.84;69.77
15678;BME280;7939;50.814;6.368;2023-11-19T09:05:31;99429.66;;;13.84;69.41
15678;BME280;7939;50.814;6.368;2023-11-19T09:07:58;99431.34;;;13.85;69.29
15678;BME280;7939;50.814;6.368;2023-11-19T09:10:25;99418.63;;;13.79;69.08
15678;BME280;7939;50.814;6.368;2023-11-19T09:12:52;99428.81;;;13.83;69.89
15678;BME280;7939;50.814;6.368;2023-11-19T09:15:19;99399.75;;;13.80;69.01
15678;BME280;7939;50.814;6.368;2023-11-19T09:17:45;99425.41;;;13.81;69.71
15678;BME280;7939;50.814;6.368;2023-11-19T09:20:12;99421.91;;;13.85;69.30
15678;BME280;7939;50.814;6.368;2023-11-19T09:22:42;99421.94;;;13.84;69.07
15678;BME280;7939;50.814;6.368;2023-11-19T09:25:08;99415.94;;;13.85;69.87
15678;BME280;7939;50.814;6.368;2023-11-19T09:27:35;99418.47;;;13.86;68.90
15678;BME280;7939;50.814;6.368;2023-11-19T09:30:02;99421.84;;;13.88;68.92
15678;BME280;7939;50.814;6.368;2023-11-19T09:32:29;99431.28;;;13.88;69.26
15678;BME280;7939;50.814;6.368;2023-11-19T09:34:55;99420.16;;;13.87;69.66
15678;BME280;7939;50.814;6.368;2023-11-19T09:37:22;99426.13;;;13.88;69.00
15678;BME280;7939;50.814;6.368;2023-11-19T09:39:50;99422.69;;;13.90;69.73
15678;BME280;7939;50.814;6.368;2023-11-19T09:42:18;99414.06;;;13.93;69.38
15678;BME280;7939;50.814;6.368;2023-11-19T09:44:47;99433.75;;;13.92;69.62
15678;BME280;7939;50.814;6.368;2023-11-19T09:47:14;99423.44;;;13.94;69.39
15678;BME280;7939;50.814;6.368;2023-11-19T09:49:41;99429.47;;;13.93;68.92
15678;BME280;7939;50.814;6.368;2023-11-19T09:52:08;99419.19;;;13.93;69.81
15678;BME280;7939;50.814;6.368;2023-11-19T09:54:34;99418.31;;;13.94;69.21
15678;BME280;7939;50.814;6.368;2023-11-19T09:57:04;99408.84;;;13.97;68.91
15678;BME280;7939;50.814;6.368;2023-11-19T09:59:36;99407.94;;;13.98;69.48
15678;BME280;7939;50.814;6.368;2023-11-19T10:02:03;99413.00;;;14.01;69.28
15678;BME280;7939;50.814;6.368;2023-11-19T10:04:31;99403.66;;;13.99;69.03
15678;BME280;7939;50.814;6.368;2023-11-19T10:07:00;99400.22;;;14.00;68.37
15678;BME280;7939;50.814;6.368;2023-11-19T10:09:27;99405.31;;;14.01;68.61
15678;BME280;7939;50.814;6.368;2023-11-19T10:11:54;99413.00;;;14.03;69.07
15678;BME280;7939;50.814;6.368;2023-11-19T10:14:23;99412.13;;;14.04;68.77
15678;BME280;7939;50.814;6.368;2023-11-19T10:16:50;99407.00;;;14.04;68.86
15678;BME280;7939;50.814;6.368;2023-11-19T10:19:18;99395.88;;;14.03;68.85
15678;BME280;7939;50.814;6.368;2023-11-19T10:21:46;99382.97;;;14.05;68.57
15678;BME280;7939;50.814;6.368;2023-11-19T10:24:13;99380.38;;;14.08;69.27
15678;BME280;7939;50.814;6.368;2023-11-19T10:26:40;99383.78;;;14.09;68.66
15678;BME280;7939;50.814;6.368;2023-11-19T10:29:07;99395.78;;;14.08;68.35
15678;BME280;7939;50.814;6.368;2023-11-19T10:31:35;99394.88;;;14.11;68.69
15678;BME280;7939;50.814;6.368;2023-11-19T10:34:01;99392.34;;;14.09;68.68
15678;BME280;7939;50.814;6.368;2023-11-19T10:36:47;99389.63;;;14.15;68.83
15678;BME280;7939;50.814;6.368;2023-11-19T10:39:13;99405.00;;;14.17;68.49
15678;BME280;7939;50.814;6.368;2023-11-19T10:41:40;99390.50;;;14.14;69.13
15678;BME280;7939;50.814;6.368;2023-11-19T10:44:07;99390.47;;;14.16;68.86
15678;BME280;7939;50.814;6.368;2023-11-19T10:46:39;99405.00;;;14.17;68.79
15678;BME280;7939;50.814;6.368;2023-11-19T10:49:07;99402.41;;;14.18;68.41
15678;BME280;7939;50.814;6.368;2023-11-19T10:51:33;99399.91;;;14.15;68.61
15678;BME280;7939;50.814;6.368;2023-11-19T10:54:02;99390.41;;;14.19;68.62
15678;BME280;7939;50.814;6.368;2023-11-19T10:56:31;99393.84;;;14.18;68.50
15678;BME280;7939;50.814;6.368;2023-11-19T10:58:59;99391.25;;;14.19;67.90
15678;BME280;7939;50.814;6.368;2023-11-19T11:01:31;99397.22;;;14.21;67.74
15678;BME280;7939;50.814;6.368;2023-11-19T11:04:02;99405.78;;;14.20;68.27
15678;BME280;7939;50.814;6.368;2023-11-19T11:06:29;99408.34;;;14.20;68.13
15678;BME280;7939;50.814;6.368;2023-11-19T11:08:56;99406.63;;;14.22;68.27
15678;BME280;7939;50.814;6.368;2023-11-19T11:11:24;99413.47;;;14.22;68.26
15678;BME280;7939;50.814;6.368;2023-11-19T11:13:53;99426.38;;;14.19;68.32
15678;BME280;7939;50.814;6.368;2023-11-19T11:16:22;99409.22;;;14.21;68.54
15678;BME280;7939;50.814;6.368;2023-11-19T11:18:50;99407.50;;;14.20;68.66
15678;BME280;7939;50.814;6.368;2023-11-19T11:21:21;99405.00;;;14.17;68.26
15678;BME280;7939;50.814;6.368;2023-11-19T11:24:25;99399.78;;;14.20;68.62
15678;BME280;7939;50.814;6.368;2023-11-19T11:27:16;99403.19;;;14.22;68.43
15678;BME280;7939;50.814;6.368;2023-11-19T11:29:54;99398.91;;;14.22;68.40
15678;BME280;7939;50.814;6.368;2023-11-19T11:32:33;99374.00;;;14.24;68.99
15678;BME280;7939;50.814;6.368;2023-11-19T11:35:16;99381.69;;;14.26;68.43
15678;BME280;7939;50.814;6.368;2023-11-19T11:37:49;99381.69;;;14.26;68.39
15678;BME280;7939;50.814;6.368;2023-11-19T11:40:18;99383.41;;;14.27;68.33
15678;BME280;7939;50.814;6.368;2023-11-19T11:42:44;99371.34;;;14.29;68.41
15678;BME280;7939;50.814;6.368;2023-11-19T11:45:12;99382.47;;;14.29;68.76
15678;BME280;7939;50.814;6.368;2023-11-19T11:48:11;99367.03;;;14.29;68.79
15678;BME280;7939;50.814;6.368;2023-11-19T11:50:51;99367.00;;;14.31;68.44
15678;BME280;7939;50.814;6.368;2023-11-19T11:53:21;99367.03;;;14.29;68.83
15678;BME280;7939;50.814;6.368;2023-11-19T11:55:54;99359.28;;;14.31;68.59
15678;BME280;7939;50.814;6.368;2023-11-19T11:58:26;99360.13;;;14.33;68.40
15678;BME280;7939;50.814;6.368;2023-11-19T12:00:53;99366.97;;;14.32;68.11
15678;BME280;7939;50.814;6.368;2023-11-19T12:03:21;99381.59;;;14.30;68.34
15678;BME280;7939;50.814;6.368;2023-11-19T12:05:48;99377.19;;;14.36;68.19
15678;BME280;7939;50.814;6.368;2023-11-19T12:08:20;99364.34;;;14.36;68.12
15678;BME280;7939;50.814;6.368;2023-11-19T12:10:51;99360.94;;;14.35;68.08
15678;BME280;7939;50.814;6.368;2023-11-19T12:13:19;99365.19;;;14.36;68.42
15678;BME280;7939;50.814;6.368;2023-11-19T12:16:09;99362.56;;;14.38;68.36
15678;BME280;7939;50.814;6.368;2023-11-19T12:18:38;99371.97;;;14.39;68.62
15678;BME280;7939;50.814;6.368;2023-11-19T12:21:06;99346.25;;;14.40;68.05
15678;BME280;7939;50.814;6.368;2023-11-19T12:23:44;99350.56;;;14.40;68.13
15678;BME280;7939;50.814;6.368;2023-11-19T12:26:21;99348.91;;;14.36;68.52
15678;BME280;7939;50.814;6.368;2023-11-19T12:28:57;99363.41;;;14.38;68.36
15678;BME280;7939;50.814;6.368;2023-11-19T12:31:24;99358.28;;;14.38;68.33
15678;BME280;7939;50.814;6.368;2023-11-19T12:33:51;99366.81;;;14.40;68.34
15678;BME280;7939;50.814;6.368;2023-11-19T12:36:17;99363.41;;;14.38;68.31
15678;BME280;7939;50.814;6.368;2023-11-19T12:38:45;99347.09;;;14.39;68.54
15678;BME280;7939;50.814;6.368;2023-11-19T12:41:12;99349.66;;;14.41;68.49
15678;BME280;7939;50.814;6.368;2023-11-19T12:43:43;99349.63;;;14.42;67.95
15678;BME280;7939;50.814;6.368;2023-11-19T12:46:19;99341.88;;;14.44;68.50
15678;BME280;7939;50.814;6.368;2023-11-19T12:48:46;99345.28;;;14.44;68.60
15678;BME280;7939;50.814;6.368;2023-11-19T12:51:13;99337.56;;;14.44;68.56
15678;BME280;7939;50.814;6.368;2023-11-19T12:53:49;99326.44;;;14.47;68.36
15678;BME280;7939;50.814;6.368;2023-11-19T12:56:19;99328.13;;;14.45;68.00
15678;BME280;7939;50.814;6.368;2023-11-19T12:58:47;99323.91;;;14.42;67.86
15678;BME280;7939;50.814;6.368;2023-11-19T13:01:16;99317.88;;;14.46;67.96
15678;BME280;7939;50.814;6.368;2023-11-19T13:03:43;99330.69;;;14.45;67.63
15678;BME280;7939;50.814;6.368;2023-11-19T13:06:10;99325.56;;;14.45;67.70
15678;BME280;7939;50.814;6.368;2023-11-19T13:08:38;99323.84;;;14.45;67.89
15678;BME280;7939;50.814;6.368;2023-11-19T13:11:07;99329.00;;;14.47;67.74
15678;BME280;7939;50.814;6.368;2023-11-19T13:13:55;99323.84;;;14.47;67.68
15678;BME280;7939;50.814;6.368;2023-11-19T13:16:22;99323.88;;;14.44;67.46